Cincinnati, OH

2:40 AM EDT en Septiembre 02, 2014 (GMT -0400)
Newport Aquarium | Change Station
CLOSE
Current Station
Estación meteorológica personal
Location: Newport, KY
Altura: 499 ft
Estaciones meteorológicas cercanas

Alt 499 ft 39.09 °N, 84.50 °W | Updated 1 minute ago

Clear
Despejado
77.2 ° F
Sensación térmica 79 ° F
N
4.0
Viento Variable Viento desde ESE
Gusts 4.0 mph

Hoy
Alta -- | Baja -- ° F
--% Posibilidad de precipitaciones
Ayer
Alta -- | Baja -- ° F
Precip. -- pul
7:07 AM 8:06 PM
Creciente, 48% visible
Presión 29.95 pul
Visibilidad 10.0 Millas
Nubes Despejado
Índice de calor 79 ° F
Punto de rocío 70 ° F
Humedad 79%
Precipitaciones 0.00 pul
Espesor de la nieve No disponible.
UV 0 de una escala de 12
Polen 9.60 de una escala de 12
Ozono Buena
PM2.5 Moderada
Flu Activity No disponible.
METAR KLUK 020553Z AUTO 21006KT 10SM CLR 24/22 A2996 RMK AO2 SLP140 T02390217 10278 20239 50001

More Conditions Fewer Conditions

Presión 29.95 pul
Visibilidad 10.0 Millas
Nubes Despejado
Índice de calor 79 ° F
Punto de rocío 70 ° F
Humedad 79%
Precipitaciones 0.00 pul
Espesor de la nieve No disponible.
UV 0 de una escala de 12
Polen 9.60 de una escala de 12
Ozono Buena
PM2.5 Moderada
Flu Activity No disponible.
METAR KLUK 020553Z AUTO 21006KT 10SM CLR 24/22 A2996 RMK AO2 SLP140 T02390217 10278 20239 50001

More Conditions Fewer Conditions

10-Day Weather Forecast

Almanac

Astronomía

Sep. 02, 2014 Salida Puesta
Hora real 7:07 AM EDT 8:06 PM EDT
Crepúsculo civil 6:40 AM EDT 8:34 PM EDT
Crepúsculo náutico 6:07 AM EDT 9:06 PM EDT
Crepúsculo astronómico 5:33 AM EDT 9:40 PM EDT
Luna 2:47 PM EDT 12:12 AM EDT
Horas de luz 13h 54m
Horas de luz
12h 59m
Tomorrow will be 2m 27s shorter.
Creciente, 48% of the Moon is Illuminated
Hoy
Creciente
Sep 2
Cuarto creciente
Sep 8
Luna llena
Sep 15
Cuarto menguante
Sep 24
Nueva

Extremos de hoy

Máximos del estado Bajos del estado

Community

WunderPhotos

Upload Photos

1,749,589 ¡fotos cargadas!

WunderBlogs® & News

Nearby

Calidad del aire

  Calidad del aire Índice AQ Contaminante
Ayer Buena
PM10
Ayer Buena
OZONE
Real Moderada
PM2.5
Real Buena
OZONE
Martes Moderada
PM2.5
Martes Buena
OZONE

Grosos de nieve

Estación Profundido Altura
No tenemos constancia de nieve nueva.

Actividad de terremotos

Ciudad Distance Mag. Tiempo y dato
No hay informes recientes de la actividad sísmica.
Magnitud mínima muestra es 2,5.

Temperaturas de aguas costeras

Lugar Temperatura
Sin partes meteorológicos de las estaciones

Estaciones meteorológicas cercanas